sensor_id;sensor_type;location;lat;lon;timestamp;pressure;altitude;pressure_sealevel;temperature;humidity
50242;BME280;36126;43.222;27.874;2022-12-05T00:01:28;102533.41;;;5.84;100.00
50242;BME280;36126;43.222;27.874;2022-12-05T00:03:54;102521.66;;;6.00;100.00
50242;BME280;36126;43.222;27.874;2022-12-05T00:06:20;102526.69;;;6.30;100.00
50242;BME280;36126;43.222;27.874;2022-12-05T00:08:46;102535.81;;;6.05;100.00
50242;BME280;36126;43.222;27.874;2022-12-05T00:11:21;102533.22;;;6.03;100.00
50242;BME280;36126;43.222;27.874;2022-12-05T00:13:48;102522.47;;;6.18;100.00
50242;BME280;36126;43.222;27.874;2022-12-05T00:16:14;102542.00;;;5.99;100.00
50242;BME280;36126;43.222;27.874;2022-12-05T00:18:40;102530.13;;;5.80;100.00
50242;BME280;36126;43.222;27.874;2022-12-05T00:21:06;102531.53;;;5.84;100.00
50242;BME280;36126;43.222;27.874;2022-12-05T00:23:32;102538.63;;;6.13;100.00
50242;BME280;36126;43.222;27.874;2022-12-05T00:26:02;102532.09;;;6.14;100.00
50242;BME280;36126;43.222;27.874;2022-12-05T00:28:27;102529.28;;;6.06;100.00
50242;BME280;36126;43.222;27.874;2022-12-05T00:30:53;102529.66;;;6.11;100.00
50242;BME280;36126;43.222;27.874;2022-12-05T00:33:18;102531.66;;;5.83;100.00
50242;BME280;36126;43.222;27.874;2022-12-05T00:35:43;102521.41;;;5.93;100.00
50242;BME280;36126;43.222;27.874;2022-12-05T00:38:09;102533.44;;;6.10;100.00
50242;BME280;36126;43.222;27.874;2022-12-05T00:40:35;102531.25;;;5.95;100.00
50242;BME280;36126;43.222;27.874;2022-12-05T00:43:00;102524.16;;;6.11;100.00
50242;BME280;36126;43.222;27.874;2022-12-05T00:45:25;102532.09;;;6.40;100.00
50242;BME280;36126;43.222;27.874;2022-12-05T00:47:51;102521.38;;;6.37;100.00
50242;BME280;36126;43.222;27.874;2022-12-05T00:50:16;102523.00;;;6.48;100.00
50242;BME280;36126;43.222;27.874;2022-12-05T00:52:41;102525.53;;;6.41;100.00
50242;BME280;36126;43.222;27.874;2022-12-05T00:55:07;102517.53;;;6.30;100.00
50242;BME280;36126;43.222;27.874;2022-12-05T00:57:32;102506.72;;;6.37;100.00
50242;BME280;36126;43.222;27.874;2022-12-05T00:59:58;102515.09;;;6.27;100.00
50242;BME280;36126;43.222;27.874;2022-12-05T01:02:23;102509.50;;;6.10;100.00
50242;BME280;36126;43.222;27.874;2022-12-05T01:04:48;102512.34;;;6.01;100.00
50242;BME280;36126;43.222;27.874;2022-12-05T01:07:13;102516.78;;;6.20;100.00
50242;BME280;36126;43.222;27.874;2022-12-05T01:09:39;102517.44;;;6.13;100.00
50242;BME280;36126;43.222;27.874;2022-12-05T01:12:04;102508.44;;;6.11;100.00
50242;BME280;36126;43.222;27.874;2022-12-05T01:14:30;102513.72;;;6.23;100.00
50242;BME280;36126;43.222;27.874;2022-12-05T01:16:55;102510.78;;;6.24;100.00
50242;BME280;36126;43.222;27.874;2022-12-05T01:19:24;102504.03;;;6.19;100.00
50242;BME280;36126;43.222;27.874;2022-12-05T01:21:50;102503.19;;;6.26;100.00
50242;BME280;36126;43.222;27.874;2022-12-05T01:24:16;102502.97;;;6.20;100.00
50242;BME280;36126;43.222;27.874;2022-12-05T01:26:42;102501.22;;;6.10;100.00
50242;BME280;36126;43.222;27.874;2022-12-05T01:29:08;102500.59;;;6.25;100.00
50242;BME280;36126;43.222;27.874;2022-12-05T01:31:34;102497.28;;;6.21;100.00
50242;BME280;36126;43.222;27.874;2022-12-05T01:34:01;102499.84;;;6.15;100.00
50242;BME280;36126;43.222;27.874;2022-12-05T01:36:27;102485.47;;;6.03;100.00
50242;BME280;36126;43.222;27.874;2022-12-05T01:38:53;102482.13;;;6.25;100.00
50242;BME280;36126;43.222;27.874;2022-12-05T01:41:20;102477.16;;;6.29;100.00
50242;BME280;36126;43.222;27.874;2022-12-05T01:44:05;102477.63;;;6.16;100.00
50242;BME280;36126;43.222;27.874;2022-12-05T01:46:38;102461.34;;;6.13;100.00
50242;BME280;36126;43.222;27.874;2022-12-05T01:49:05;102461.56;;;6.20;100.00
50242;BME280;36126;43.222;27.874;2022-12-05T01:51:31;102484.88;;;6.25;100.00
50242;BME280;36126;43.222;27.874;2022-12-05T01:53:58;102467.69;;;6.32;100.00
50242;BME280;36126;43.222;27.874;2022-12-05T01:56:23;102468.69;;;6.30;100.00
50242;BME280;36126;43.222;27.874;2022-12-05T01:58:49;102461.19;;;6.41;100.00
50242;BME280;36126;43.222;27.874;2022-12-05T02:01:15;102451.00;;;6.50;100.00
50242;BME280;36126;43.222;27.874;2022-12-05T02:03:41;102452.63;;;6.60;100.00
50242;BME280;36126;43.222;27.874;2022-12-05T02:06:08;102456.63;;;6.74;100.00
50242;BME280;36126;43.222;27.874;2022-12-05T02:08:34;102456.28;;;6.77;100.00
50242;BME280;36126;43.222;27.874;2022-12-05T02:11:00;102451.78;;;6.76;100.00
50242;BME280;36126;43.222;27.874;2022-12-05T02:16:17;102449.66;;;6.54;100.00
50242;BME280;36126;43.222;27.874;2022-12-05T02:27:00;102438.88;;;6.34;100.00
50242;BME280;36126;43.222;27.874;2022-12-05T02:31:35;102454.22;;;6.28;100.00
50242;BME280;36126;43.222;27.874;2022-12-05T02:34:09;102445.41;;;6.33;100.00
50242;BME280;36126;43.222;27.874;2022-12-05T02:36:43;102453.25;;;6.54;100.00
50242;BME280;36126;43.222;27.874;2022-12-05T02:39:14;102453.91;;;6.40;100.00
50242;BME280;36126;43.222;27.874;2022-12-05T02:44:28;102454.94;;;6.39;100.00
50242;BME280;36126;43.222;27.874;2022-12-05T02:46:56;102465.84;;;6.49;100.00
50242;BME280;36126;43.222;27.874;2022-12-05T02:49:24;102473.25;;;6.40;100.00
50242;BME280;36126;43.222;27.874;2022-12-05T02:51:53;102480.78;;;6.72;100.00
50242;BME280;36126;43.222;27.874;2022-12-05T02:54:23;102471.84;;;6.36;100.00
50242;BME280;36126;43.222;27.874;2022-12-05T02:56:50;102472.25;;;6.49;100.00
50242;BME280;36126;43.222;27.874;2022-12-05T02:59:16;102476.38;;;6.45;100.00
50242;BME280;36126;43.222;27.874;2022-12-05T03:01:43;102481.31;;;6.33;100.00
50242;BME280;36126;43.222;27.874;2022-12-05T03:04:09;102484.59;;;6.28;100.00
50242;BME280;36126;43.222;27.874;2022-12-05T03:06:40;102480.41;;;6.24;100.00
50242;BME280;36126;43.222;27.874;2022-12-05T03:09:27;102485.88;;;6.16;100.00
50242;BME280;36126;43.222;27.874;2022-12-05T03:14:32;102486.81;;;6.68;100.00
50242;BME280;36126;43.222;27.874;2022-12-05T03:17:02;102483.25;;;6.75;100.00
50242;BME280;36126;43.222;27.874;2022-12-05T03:19:31;102478.69;;;6.66;100.00
50242;BME280;36126;43.222;27.874;2022-12-05T03:22:03;102477.81;;;6.66;100.00
50242;BME280;36126;43.222;27.874;2022-12-05T03:24:30;102487.19;;;6.73;100.00
50242;BME280;36126;43.222;27.874;2022-12-05T03:30:18;102471.06;;;6.60;100.00
50242;BME280;36126;43.222;27.874;2022-12-05T03:32:48;102471.59;;;6.55;100.00
50242;BME280;36126;43.222;27.874;2022-12-05T03:35:30;102463.84;;;6.59;100.00
50242;BME280;36126;43.222;27.874;2022-12-05T03:40:47;102461.69;;;6.44;100.00
50242;BME280;36126;43.222;27.874;2022-12-05T03:43:23;102463.22;;;6.39;100.00
50242;BME280;36126;43.222;27.874;2022-12-05T03:46:02;102456.16;;;6.44;100.00
50242;BME280;36126;43.222;27.874;2022-12-05T03:48:30;102462.63;;;6.70;100.00
50242;BME280;36126;43.222;27.874;2022-12-05T03:50:56;102458.06;;;6.87;100.00
50242;BME280;36126;43.222;27.874;2022-12-05T03:53:31;102458.38;;;6.75;100.00
50242;BME280;36126;43.222;27.874;2022-12-05T03:56:05;102467.84;;;6.73;100.00
50242;BME280;36126;43.222;27.874;2022-12-05T03:58:54;102464.25;;;6.38;100.00
50242;BME280;36126;43.222;27.874;2022-12-05T04:01:18;102476.59;;;6.25;100.00
50242;BME280;36126;43.222;27.874;2022-12-05T04:03:46;102474.09;;;6.40;100.00
50242;BME280;36126;43.222;27.874;2022-12-05T04:06:37;102470.31;;;6.41;100.00
50242;BME280;36126;43.222;27.874;2022-12-05T04:09:02;102478.91;;;6.73;100.00
50242;BME280;36126;43.222;27.874;2022-12-05T04:11:31;102470.38;;;6.58;100.00
50242;BME280;36126;43.222;27.874;2022-12-05T04:13:58;102474.53;;;6.62;100.00
50242;BME280;36126;43.222;27.874;2022-12-05T04:16:29;102478.50;;;6.59;100.00
50242;BME280;36126;43.222;27.874;2022-12-05T04:19:33;102493.34;;;6.58;100.00
50242;BME280;36126;43.222;27.874;2022-12-05T04:22:19;102493.84;;;6.54;100.00
50242;BME280;36126;43.222;27.874;2022-12-05T04:24:45;102480.41;;;6.59;100.00
50242;BME280;36126;43.222;27.874;2022-12-05T04:30:18;102501.16;;;6.63;100.00
50242;BME280;36126;43.222;27.874;2022-12-05T04:32:57;102489.41;;;6.69;100.00
50242;BME280;36126;43.222;27.874;2022-12-05T04:35:27;102494.81;;;6.87;100.00
50242;BME280;36126;43.222;27.874;2022-12-05T04:38:06;102499.09;;;6.73;100.00
50242;BME280;36126;43.222;27.874;2022-12-05T04:40:37;102504.13;;;6.86;100.00
50242;BME280;36126;43.222;27.874;2022-12-05T04:43:04;102500.38;;;6.95;100.00
50242;BME280;36126;43.222;27.874;2022-12-05T04:45:31;102507.25;;;6.83;100.00
50242;BME280;36126;43.222;27.874;2022-12-05T04:47:58;102507.22;;;6.75;100.00
50242;BME280;36126;43.222;27.874;2022-12-05T04:50:26;102500.38;;;6.53;100.00
50242;BME280;36126;43.222;27.874;2022-12-05T04:52:53;102507.09;;;6.50;100.00
50242;BME280;36126;43.222;27.874;2022-12-05T04:55:21;102512.31;;;6.53;100.00
50242;BME280;36126;43.222;27.874;2022-12-05T04:58:09;102507.66;;;6.54;100.00
50242;BME280;36126;43.222;27.874;2022-12-05T05:00:41;102517.31;;;6.50;100.00
50242;BME280;36126;43.222;27.874;2022-12-05T05:03:18;102511.50;;;6.69;100.00
50242;BME280;36126;43.222;27.874;2022-12-05T05:05:46;102503.22;;;6.69;100.00
50242;BME280;36126;43.222;27.874;2022-12-05T05:08:16;102517.59;;;6.73;100.00
50242;BME280;36126;43.222;27.874;2022-12-05T05:10:45;102503.78;;;6.38;100.00
50242;BME280;36126;43.222;27.874;2022-12-05T05:13:13;102513.25;;;6.70;100.00
50242;BME280;36126;43.222;27.874;2022-12-05T05:15:38;102503.41;;;6.68;100.00
50242;BME280;36126;43.222;27.874;2022-12-05T05:18:03;102511.66;;;6.59;100.00
50242;BME280;36126;43.222;27.874;2022-12-05T05:20:29;102516.31;;;6.59;100.00
50242;BME280;36126;43.222;27.874;2022-12-05T05:22:55;102512.94;;;6.81;100.00
50242;BME280;36126;43.222;27.874;2022-12-05T05:25:21;102519.25;;;6.66;100.00
50242;BME280;36126;43.222;27.874;2022-12-05T05:27:47;102520.00;;;6.76;100.00
50242;BME280;36126;43.222;27.874;2022-12-05T05:30:12;102526.88;;;7.14;100.00
50242;BME280;36126;43.222;27.874;2022-12-05T05:32:38;102515.13;;;7.21;100.00
50242;BME280;36126;43.222;27.874;2022-12-05T05:35:03;102519.03;;;6.93;100.00
50242;BME280;36126;43.222;27.874;2022-12-05T05:37:29;102512.78;;;6.83;100.00
50242;BME280;36126;43.222;27.874;2022-12-05T05:39:54;102514.16;;;6.87;100.00
50242;BME280;36126;43.222;27.874;2022-12-05T05:42:19;102519.34;;;6.90;100.00
50242;BME280;36126;43.222;27.874;2022-12-05T05:44:45;102516.97;;;6.95;100.00
50242;BME280;36126;43.222;27.874;2022-12-05T05:47:10;102509.22;;;6.99;100.00
50242;BME280;36126;43.222;27.874;2022-12-05T05:49:37;102511.41;;;6.87;100.00
50242;BME280;36126;43.222;27.874;2022-12-05T05:52:03;102518.34;;;6.91;100.00
50242;BME280;36126;43.222;27.874;2022-12-05T05:54:28;102502.63;;;7.00;100.00
50242;BME280;36126;43.222;27.874;2022-12-05T05:56:53;102506.66;;;7.06;100.00
50242;BME280;36126;43.222;27.874;2022-12-05T05:59:19;102506.22;;;6.84;100.00
50242;BME280;36126;43.222;27.874;2022-12-05T06:01:44;102509.53;;;6.96;100.00
50242;BME280;36126;43.222;27.874;2022-12-05T06:04:09;102514.94;;;7.06;100.00
50242;BME280;36126;43.222;27.874;2022-12-05T06:06:35;102507.66;;;6.96;100.00
50242;BME280;36126;43.222;27.874;2022-12-05T06:09:00;102514.59;;;7.09;100.00
50242;BME280;36126;43.222;27.874;2022-12-05T06:11:26;102514.75;;;7.07;100.00
50242;BME280;36126;43.222;27.874;2022-12-05T06:13:53;102499.78;;;7.43;100.00
50242;BME280;36126;43.222;27.874;2022-12-05T06:16:18;102512.22;;;7.63;100.00
50242;BME280;36126;43.222;27.874;2022-12-05T06:18:45;102518.06;;;7.27;100.00
50242;BME280;36126;43.222;27.874;2022-12-05T06:21:10;102512.19;;;7.14;100.00
50242;BME280;36126;43.222;27.874;2022-12-05T06:23:37;102527.25;;;7.28;100.00
50242;BME280;36126;43.222;27.874;2022-12-05T06:26:03;102527.09;;;7.29;100.00
50242;BME280;36126;43.222;27.874;2022-12-05T06:28:29;102524.19;;;7.56;100.00
50242;BME280;36126;43.222;27.874;2022-12-05T06:30:54;102530.91;;;7.37;100.00
50242;BME280;36126;43.222;27.874;2022-12-05T06:33:19;102523.66;;;7.60;100.00
50242;BME280;36126;43.222;27.874;2022-12-05T06:35:45;102522.44;;;7.63;100.00
50242;BME280;36126;43.222;27.874;2022-12-05T06:38:10;102525.03;;;7.56;100.00
50242;BME280;36126;43.222;27.874;2022-12-05T06:40:42;102526.59;;;7.75;100.00
50242;BME280;36126;43.222;27.874;2022-12-05T06:43:08;102521.75;;;7.61;100.00
50242;BME280;36126;43.222;27.874;2022-12-05T06:45:36;102526.41;;;7.77;100.00
50242;BME280;36126;43.222;27.874;2022-12-05T06:48:01;102531.94;;;8.18;100.00
50242;BME280;36126;43.222;27.874;2022-12-05T06:50:26;102530.94;;;7.70;100.00
50242;BME280;36126;43.222;27.874;2022-12-05T06:52:52;102531.25;;;7.50;100.00
50242;BME280;36126;43.222;27.874;2022-12-05T06:55:17;102542.19;;;7.85;100.00
50242;BME280;36126;43.222;27.874;2022-12-05T06:57:42;102535.41;;;7.95;100.00
50242;BME280;36126;43.222;27.874;2022-12-05T07:00:08;102547.69;;;8.09;100.00
50242;BME280;36126;43.222;27.874;2022-12-05T07:02:52;102546.63;;;8.27;100.00
50242;BME280;36126;43.222;27.874;2022-12-05T07:05:17;102541.97;;;8.27;100.00
50242;BME280;36126;43.222;27.874;2022-12-05T07:07:43;102545.78;;;8.18;100.00
50242;BME280;36126;43.222;27.874;2022-12-05T07:10:08;102549.91;;;8.47;100.00
50242;BME280;36126;43.222;27.874;2022-12-05T07:12:34;102544.97;;;8.74;100.00
50242;BME280;36126;43.222;27.874;2022-12-05T07:14:59;102546.84;;;8.81;100.00
50242;BME280;36126;43.222;27.874;2022-12-05T07:17:24;102538.09;;;8.53;100.00
50242;BME280;36126;43.222;27.874;2022-12-05T07:19:50;102544.38;;;8.47;100.00
50242;BME280;36126;43.222;27.874;2022-12-05T07:22:16;102534.50;;;8.28;100.00
50242;BME280;36126;43.222;27.874;2022-12-05T07:24:42;102541.72;;;8.62;100.00
50242;BME280;36126;43.222;27.874;2022-12-05T07:27:07;102543.34;;;8.48;100.00
50242;BME280;36126;43.222;27.874;2022-12-05T07:29:32;102534.28;;;8.62;100.00
50242;BME280;36126;43.222;27.874;2022-12-05T07:31:58;102547.66;;;8.26;100.00
50242;BME280;36126;43.222;27.874;2022-12-05T07:34:23;102538.66;;;8.48;100.00
50242;BME280;36126;43.222;27.874;2022-12-05T07:36:48;102542.78;;;8.53;100.00
50242;BME280;36126;43.222;27.874;2022-12-05T07:39:14;102544.84;;;8.59;100.00
50242;BME280;36126;43.222;27.874;2022-12-05T07:41:40;102544.50;;;8.62;100.00
50242;BME280;36126;43.222;27.874;2022-12-05T07:44:06;102541.84;;;9.08;100.00
50242;BME280;36126;43.222;27.874;2022-12-05T07:46:33;102541.28;;;9.21;100.00
50242;BME280;36126;43.222;27.874;2022-12-05T07:48:59;102542.69;;;9.17;100.00
50242;BME280;36126;43.222;27.874;2022-12-05T07:51:24;102558.69;;;9.38;100.00
50242;BME280;36126;43.222;27.874;2022-12-05T07:53:50;102551.72;;;9.42;100.00
50242;BME280;36126;43.222;27.874;2022-12-05T07:56:16;102550.66;;;9.66;100.00
50242;BME280;36126;43.222;27.874;2022-12-05T07:58:42;102554.22;;;9.29;100.00
50242;BME280;36126;43.222;27.874;2022-12-05T08:01:09;102553.19;;;9.30;100.00
50242;BME280;36126;43.222;27.874;2022-12-05T08:03:36;102556.66;;;9.55;100.00
50242;BME280;36126;43.222;27.874;2022-12-05T08:06:02;102544.94;;;9.45;100.00
50242;BME280;36126;43.222;27.874;2022-12-05T08:08:28;102552.84;;;9.79;100.00
50242;BME280;36126;43.222;27.874;2022-12-05T08:10:53;102556.09;;;9.36;100.00
50242;BME280;36126;43.222;27.874;2022-12-05T08:13:18;102558.19;;;9.34;100.00
50242;BME280;36126;43.222;27.874;2022-12-05T08:15:44;102541.28;;;8.90;100.00
50242;BME280;36126;43.222;27.874;2022-12-05T08:18:09;102550.50;;;8.74;100.00
50242;BME280;36126;43.222;27.874;2022-12-05T08:20:34;102548.91;;;8.79;100.00
50242;BME280;36126;43.222;27.874;2022-12-05T08:23:00;102553.00;;;9.00;100.00
50242;BME280;36126;43.222;27.874;2022-12-05T08:25:26;102559.09;;;9.27;100.00
50242;BME280;36126;43.222;27.874;2022-12-05T08:27:51;102555.06;;;9.29;100.00
50242;BME280;36126;43.222;27.874;2022-12-05T08:30:17;102553.50;;;9.35;100.00
50242;BME280;36126;43.222;27.874;2022-12-05T08:32:42;102542.41;;;9.04;100.00
50242;BME280;36126;43.222;27.874;2022-12-05T08:35:08;102552.88;;;8.85;100.00
50242;BME280;36126;43.222;27.874;2022-12-05T08:37:34;102540.19;;;8.91;100.00
50242;BME280;36126;43.222;27.874;2022-12-05T08:39:59;102546.31;;;9.17;100.00
50242;BME280;36126;43.222;27.874;2022-12-05T08:42:25;102548.06;;;9.18;100.00
50242;BME280;36126;43.222;27.874;2022-12-05T08:44:50;102546.97;;;8.96;100.00
50242;BME280;36126;43.222;27.874;2022-12-05T08:47:15;102548.72;;;9.21;100.00
50242;BME280;36126;43.222;27.874;2022-12-05T08:49:41;102549.00;;;9.02;100.00
50242;BME280;36126;43.222;27.874;2022-12-05T08:52:06;102542.25;;;8.97;100.00
50242;BME280;36126;43.222;27.874;2022-12-05T08:54:32;102537.53;;;9.06;100.00
50242;BME280;36126;43.222;27.874;2022-12-05T08:56:59;102537.34;;;9.39;100.00
50242;BME280;36126;43.222;27.874;2022-12-05T08:59:27;102538.78;;;8.95;100.00
50242;BME280;36126;43.222;27.874;2022-12-05T09:01:52;102540.72;;;8.94;100.00
50242;BME280;36126;43.222;27.874;2022-12-05T09:04:18;102532.72;;;8.99;100.00
50242;BME280;36126;43.222;27.874;2022-12-05T09:06:43;102528.97;;;9.15;100.00
50242;BME280;36126;43.222;27.874;2022-12-05T09:09:09;102529.69;;;9.17;100.00
50242;BME280;36126;43.222;27.874;2022-12-05T09:11:37;102527.69;;;9.58;100.00
50242;BME280;36126;43.222;27.874;2022-12-05T09:14:05;102532.91;;;9.76;100.00
50242;BME280;36126;43.222;27.874;2022-12-05T09:16:34;102533.59;;;10.16;100.00
50242;BME280;36126;43.222;27.874;2022-12-05T09:19:00;102519.47;;;9.64;100.00
50242;BME280;36126;43.222;27.874;2022-12-05T09:21:26;102519.03;;;9.76;100.00
50242;BME280;36126;43.222;27.874;2022-12-05T09:23:53;102521.31;;;9.72;100.00
50242;BME280;36126;43.222;27.874;2022-12-05T09:26:19;102519.47;;;9.64;100.00
50242;BME280;36126;43.222;27.874;2022-12-05T09:28:45;102516.63;;;9.73;100.00
50242;BME280;36126;43.222;27.874;2022-12-05T09:31:15;102515.38;;;10.13;100.00
50242;BME280;36126;43.222;27.874;2022-12-05T09:33:40;102512.38;;;9.85;100.00
50242;BME280;36126;43.222;27.874;2022-12-05T09:36:28;102515.00;;;10.01;100.00
50242;BME280;36126;43.222;27.874;2022-12-05T09:38:52;102508.97;;;9.75;100.00
50242;BME280;36126;43.222;27.874;2022-12-05T09:44:08;102499.72;;;10.35;100.00
50242;BME280;36126;43.222;27.874;2022-12-05T09:49:21;102509.53;;;10.08;100.00
50242;BME280;36126;43.222;27.874;2022-12-05T09:51:47;102517.97;;;10.00;100.00
50242;BME280;36126;43.222;27.874;2022-12-05T09:54:13;102511.66;;;10.21;100.00
50242;BME280;36126;43.222;27.874;2022-12-05T09:56:39;102503.31;;;10.06;100.00
50242;BME280;36126;43.222;27.874;2022-12-05T09:59:09;102516.03;;;10.00;100.00
50242;BME280;36126;43.222;27.874;2022-12-05T10:01:44;102504.84;;;9.70;100.00
50242;BME280;36126;43.222;27.874;2022-12-05T10:17:31;102495.91;;;9.60;100.00
50242;BME280;36126;43.222;27.874;2022-12-05T10:19:58;102497.22;;;9.49;100.00
50242;BME280;36126;43.222;27.874;2022-12-05T10:22:27;102494.34;;;9.81;100.00
50242;BME280;36126;43.222;27.874;2022-12-05T10:24:55;102496.13;;;10.12;100.00
50242;BME280;36126;43.222;27.874;2022-12-05T10:27:26;102486.66;;;10.21;100.00
50242;BME280;36126;43.222;27.874;2022-12-05T10:30:05;102491.53;;;10.34;100.00
50242;BME280;36126;43.222;27.874;2022-12-05T10:32:35;102481.00;;;10.74;100.00
50242;BME280;36126;43.222;27.874;2022-12-05T10:37:39;102477.00;;;9.79;100.00
50242;BME280;36126;43.222;27.874;2022-12-05T10:40:10;102486.06;;;9.96;100.00
50242;BME280;36126;43.222;27.874;2022-12-05T10:42:36;102477.16;;;9.62;100.00
50242;BME280;36126;43.222;27.874;2022-12-05T10:45:03;102473.69;;;9.98;100.00
50242;BME280;36126;43.222;27.874;2022-12-05T10:47:29;102472.34;;;9.94;100.00
50242;BME280;36126;43.222;27.874;2022-12-05T10:49:56;102471.84;;;10.44;100.00
50242;BME280;36126;43.222;27.874;2022-12-05T10:52:22;102473.41;;;10.23;100.00
50242;BME280;36126;43.222;27.874;2022-12-05T10:54:49;102467.97;;;10.00;100.00
50242;BME280;36126;43.222;27.874;2022-12-05T10:57:23;102473.03;;;9.96;100.00
50242;BME280;36126;43.222;27.874;2022-12-05T10:59:49;102460.13;;;10.33;100.00
50242;BME280;36126;43.222;27.874;2022-12-05T11:02:20;102462.13;;;10.25;100.00
50242;BME280;36126;43.222;27.874;2022-12-05T11:04:46;102453.63;;;10.41;100.00
50242;BME280;36126;43.222;27.874;2022-12-05T11:08:16;102461.16;;;10.17;100.00
50242;BME280;36126;43.222;27.874;2022-12-05T11:13:14;102457.25;;;10.27;100.00
50242;BME280;36126;43.222;27.874;2022-12-05T11:15:43;102458.97;;;10.58;100.00
50242;BME280;36126;43.222;27.874;2022-12-05T11:18:30;102448.34;;;10.98;100.00
50242;BME280;36126;43.222;27.874;2022-12-05T11:20:55;102446.28;;;10.85;100.00
50242;BME280;36126;43.222;27.874;2022-12-05T11:23:27;102439.06;;;10.54;100.00
50242;BME280;36126;43.222;27.874;2022-12-05T11:25:53;102430.63;;;10.62;100.00
50242;BME280;36126;43.222;27.874;2022-12-05T11:30:54;102441.47;;;11.15;100.00
50242;BME280;36126;43.222;27.874;2022-12-05T11:33:21;102439.13;;;11.34;100.00
50242;BME280;36126;43.222;27.874;2022-12-05T11:35:46;102433.28;;;11.50;100.00
50242;BME280;36126;43.222;27.874;2022-12-05T11:38:12;102423.06;;;11.57;100.00
50242;BME280;36126;43.222;27.874;2022-12-05T11:40:46;102419.78;;;11.26;100.00
50242;BME280;36126;43.222;27.874;2022-12-05T11:46:03;102427.13;;;11.12;100.00
50242;BME280;36126;43.222;27.874;2022-12-05T11:48:39;102415.06;;;10.68;100.00
50242;BME280;36126;43.222;27.874;2022-12-05T12:12:28;102397.16;;;10.92;100.00
50242;BME280;36126;43.222;27.874;2022-12-05T12:22:40;102391.19;;;10.74;100.00
50242;BME280;36126;43.222;27.874;2022-12-05T12:25:13;102390.81;;;10.98;100.00
50242;BME280;36126;43.222;27.874;2022-12-05T12:30:21;102389.97;;;10.61;100.00
50242;BME280;36126;43.222;27.874;2022-12-05T12:32:57;102387.09;;;10.91;100.00
50242;BME280;36126;43.222;27.874;2022-12-05T12:37:57;102382.47;;;10.62;100.00
50242;BME280;36126;43.222;27.874;2022-12-05T12:50:49;102376.22;;;10.75;100.00
50242;BME280;36126;43.222;27.874;2022-12-05T12:53:24;102375.97;;;10.54;100.00
50242;BME280;36126;43.222;27.874;2022-12-05T13:01:21;102371.72;;;10.22;100.00
50242;BME280;36126;43.222;27.874;2022-12-05T13:06:28;102374.47;;;10.37;100.00
50242;BME280;36126;43.222;27.874;2022-12-05T13:08:56;102381.84;;;10.30;100.00
50242;BME280;36126;43.222;27.874;2022-12-05T13:11:23;102376.78;;;10.18;100.00
50242;BME280;36126;43.222;27.874;2022-12-05T13:13:52;102387.69;;;9.75;100.00
50242;BME280;36126;43.222;27.874;2022-12-05T13:16:27;102382.16;;;9.37;100.00
50242;BME280;36126;43.222;27.874;2022-12-05T13:18:54;102391.31;;;9.23;100.00
50242;BME280;36126;43.222;27.874;2022-12-05T13:21:20;102382.03;;;9.30;100.00
50242;BME280;36126;43.222;27.874;2022-12-05T13:23:47;102372.50;;;9.33;100.00
50242;BME280;36126;43.222;27.874;2022-12-05T13:26:13;102379.25;;;9.30;100.00
50242;BME280;36126;43.222;27.874;2022-12-05T13:28:55;102389.19;;;9.48;100.00
50242;BME280;36126;43.222;27.874;2022-12-05T13:31:35;102382.09;;;9.45;100.00
50242;BME280;36126;43.222;27.874;2022-12-05T13:34:01;102380.03;;;9.77;100.00
50242;BME280;36126;43.222;27.874;2022-12-05T13:36:26;102389.41;;;9.61;100.00
50242;BME280;36126;43.222;27.874;2022-12-05T13:41:57;102386.03;;;9.28;100.00
50242;BME280;36126;43.222;27.874;2022-12-05T13:44:40;102375.88;;;9.43;100.00
50242;BME280;36126;43.222;27.874;2022-12-05T13:47:07;102384.50;;;9.63;100.00
50242;BME280;36126;43.222;27.874;2022-12-05T13:49:44;102389.56;;;9.45;100.00
50242;BME280;36126;43.222;27.874;2022-12-05T13:52:31;102382.13;;;8.99;100.00
50242;BME280;36126;43.222;27.874;2022-12-05T13:55:13;102382.28;;;9.44;100.00
50242;BME280;36126;43.222;27.874;2022-12-05T13:57:44;102385.38;;;9.49;100.00
50242;BME280;36126;43.222;27.874;2022-12-05T14:10:11;102385.22;;;10.10;100.00
50242;BME280;36126;43.222;27.874;2022-12-05T14:18:01;102384.13;;;9.66;100.00
50242;BME280;36126;43.222;27.874;2022-12-05T14:31:12;102398.22;;;9.42;100.00
50242;BME280;36126;43.222;27.874;2022-12-05T14:33:40;102399.75;;;9.67;100.00
50242;BME280;36126;43.222;27.874;2022-12-05T14:36:06;102390.66;;;9.74;100.00
50242;BME280;36126;43.222;27.874;2022-12-05T14:38:37;102396.66;;;9.62;100.00
50242;BME280;36126;43.222;27.874;2022-12-05T14:43:49;102393.97;;;9.54;100.00
50242;BME280;36126;43.222;27.874;2022-12-05T14:46:24;102392.28;;;9.07;100.00
50242;BME280;36126;43.222;27.874;2022-12-05T14:48:50;102396.28;;;9.27;100.00
50242;BME280;36126;43.222;27.874;2022-12-05T14:54:02;102392.81;;;9.48;100.00
50242;BME280;36126;43.222;27.874;2022-12-05T14:56:29;102404.78;;;9.49;100.00
50242;BME280;36126;43.222;27.874;2022-12-05T15:01:59;102395.56;;;9.48;100.00
50242;BME280;36126;43.222;27.874;2022-12-05T15:09:32;102405.97;;;9.69;100.00
50242;BME280;36126;43.222;27.874;2022-12-05T15:12:35;102407.56;;;9.64;100.00
50242;BME280;36126;43.222;27.874;2022-12-05T15:14:55;102403.06;;;9.48;100.00
50242;BME280;36126;43.222;27.874;2022-12-05T15:17:25;102403.66;;;9.73;100.00